createdAt,value
2023-05-19T00:00:01.200Z,26.67
2023-05-19T00:02:34.173Z,25.63
2023-05-19T00:05:02.345Z,21.73
2023-05-19T00:07:31.517Z,26.40
2023-05-19T00:09:58.886Z,28.52
2023-05-19T00:12:26.558Z,25.40
2023-05-19T00:15:00.144Z,25.50
2023-05-19T00:17:30.410Z,28.48
2023-05-19T00:19:58.085Z,26.70
2023-05-19T00:22:26.119Z,25.15
2023-05-19T00:24:53.200Z,24.17
2023-05-19T00:27:20.472Z,25.00
2023-05-19T00:29:47.859Z,24.77
2023-05-19T00:32:15.955Z,25.60
2023-05-19T00:34:43.203Z,24.35
2023-05-19T00:37:10.265Z,23.60
2023-05-19T00:39:37.398Z,22.33
2023-05-19T00:42:06.063Z,25.77
2023-05-19T00:44:35.928Z,23.08
2023-05-19T00:47:05.720Z,25.70
2023-05-19T00:49:37.064Z,25.85
2023-05-19T00:52:04.597Z,24.73
2023-05-19T00:54:31.710Z,28.27
2023-05-19T00:56:59.336Z,24.13
2023-05-19T00:59:26.669Z,23.52
2023-05-19T01:01:53.715Z,24.25
2023-05-19T01:04:21.956Z,25.00
2023-05-19T01:06:58.120Z,25.92
2023-05-19T01:09:25.179Z,25.88
2023-05-19T01:11:52.361Z,26.92
2023-05-19T01:14:19.669Z,31.30
2023-05-19T01:16:51.894Z,33.95
2023-05-19T01:19:31.022Z,33.33
2023-05-19T01:22:16.567Z,28.65
2023-05-19T01:25:11.493Z,25.67
2023-05-19T01:28:00.333Z,29.02
2023-05-19T01:30:29.239Z,31.30
2023-05-19T01:33:01.209Z,27.38
2023-05-19T01:35:28.530Z,22.48
2023-05-19T01:37:57.938Z,27.00
2023-05-19T01:40:25.821Z,28.38
2023-05-19T01:42:57.886Z,31.98
2023-05-19T01:45:26.230Z,35.13
2023-05-19T01:47:57.815Z,30.67
2023-05-19T01:50:25.020Z,34.72
2023-05-19T01:52:52.186Z,37.45
2023-05-19T01:55:19.442Z,42.00
2023-05-19T01:58:02.077Z,41.20
2023-05-19T02:00:51.894Z,42.35
2023-05-19T02:03:26.684Z,41.97
2023-05-19T02:06:03.029Z,40.55
2023-05-19T02:08:30.090Z,31.23
2023-05-19T02:11:27.667Z,30.13
2023-05-19T02:13:56.415Z,34.42
2023-05-19T02:16:26.997Z,31.02
2023-05-19T02:21:21.320Z,30.83
2023-05-19T02:23:49.190Z,30.27
2023-05-19T02:26:16.241Z,31.98
2023-05-19T02:28:43.253Z,28.15
2023-05-19T02:31:10.351Z,33.42
2023-05-19T02:33:37.712Z,27.80
2023-05-19T02:36:05.613Z,30.92
2023-05-19T02:38:34.498Z,30.00
2023-05-19T02:41:01.815Z,32.70
2023-05-19T02:43:31.852Z,30.88
2023-05-19T02:45:58.962Z,28.63
2023-05-19T02:48:26.437Z,31.42
2023-05-19T02:50:53.506Z,31.15
2023-05-19T02:53:20.499Z,33.45
2023-05-19T02:55:47.629Z,36.30
2023-05-19T02:58:14.781Z,35.05
2023-05-19T03:00:41.992Z,32.28
2023-05-19T03:03:10.490Z,33.60
2023-05-19T03:05:37.703Z,35.53
2023-05-19T03:08:05.020Z,36.80
2023-05-19T03:10:32.325Z,34.25
2023-05-19T03:12:59.772Z,33.17
2023-05-19T03:15:26.842Z,30.65
2023-05-19T03:17:56.638Z,34.05
2023-05-19T03:20:24.667Z,31.67
2023-05-19T03:22:51.845Z,39.05
2023-05-19T03:25:18.950Z,35.28
2023-05-19T03:27:45.973Z,32.72
2023-05-19T03:30:13.781Z,34.70
2023-05-19T03:32:41.060Z,37.97
2023-05-19T03:35:08.478Z,45.50
2023-05-19T03:37:35.785Z,39.55
2023-05-19T03:40:02.856Z,31.60
2023-05-19T03:42:30.163Z,29.52
2023-05-19T03:44:57.285Z,31.70
2023-05-19T03:47:24.417Z,31.23
2023-05-19T03:49:51.560Z,31.00
2023-05-19T03:52:18.681Z,33.42
2023-05-19T03:54:46.003Z,28.17
2023-05-19T03:57:13.904Z,33.17
2023-05-19T03:59:41.600Z,35.30
2023-05-19T04:02:14.057Z,29.83
2023-05-19T04:04:41.557Z,31.23
2023-05-19T04:07:08.811Z,28.67
2023-05-19T04:09:36.264Z,25.38
2023-05-19T04:12:03.385Z,25.02
2023-05-19T04:14:30.437Z,24.85
2023-05-19T04:16:57.652Z,23.92
2023-05-19T04:19:28.170Z,28.45
2023-05-19T04:21:55.480Z,31.10
2023-05-19T04:24:22.568Z,23.58
2023-05-19T04:26:49.613Z,22.48
2023-05-19T04:29:18.516Z,25.63
2023-05-19T04:31:46.122Z,24.17
2023-05-19T04:34:13.235Z,25.95
2023-05-19T04:36:40.648Z,25.65
2023-05-19T04:39:10.213Z,32.33
2023-05-19T04:41:40.630Z,27.30
2023-05-19T04:44:24.194Z,25.75
2023-05-19T04:46:54.574Z,27.83
2023-05-19T04:49:21.866Z,34.13
2023-05-19T04:51:53.280Z,31.17
2023-05-19T04:54:22.014Z,31.10
2023-05-19T04:56:49.073Z,28.85
2023-05-19T04:59:16.112Z,38.40
2023-05-19T05:01:43.544Z,33.50
2023-05-19T05:04:10.804Z,31.42
2023-05-19T05:06:40.658Z,31.10
2023-05-19T05:09:12.444Z,37.08
2023-05-19T05:11:40.765Z,32.17
2023-05-19T05:14:09.644Z,34.03
2023-05-19T05:16:37.425Z,32.15
2023-05-19T05:19:04.891Z,32.40
2023-05-19T05:21:33.111Z,28.52
2023-05-19T05:24:00.506Z,31.08
2023-05-19T05:26:30.385Z,27.45
2023-05-19T05:28:57.636Z,31.33
2023-05-19T05:31:24.820Z,29.73
2023-05-19T05:33:52.103Z,32.15
2023-05-19T05:36:19.333Z,30.75
2023-05-19T05:38:46.552Z,33.50
2023-05-19T05:41:13.610Z,35.40
2023-05-19T05:43:40.928Z,26.38
2023-05-19T05:46:08.083Z,28.70
2023-05-19T05:48:35.563Z,24.02
2023-05-19T05:51:03.034Z,29.20
2023-05-19T05:53:31.232Z,23.45
2023-05-19T05:55:58.732Z,24.77
2023-05-19T05:58:26.076Z,21.42
2023-05-19T06:00:57.277Z,21.98
2023-05-19T06:03:24.837Z,21.20
2023-05-19T06:05:53.259Z,21.00
2023-05-19T06:08:20.529Z,23.25
2023-05-19T06:10:47.735Z,17.23
2023-05-19T06:13:18.123Z,20.67
2023-05-19T06:15:45.369Z,20.77
2023-05-19T06:18:12.572Z,20.45
2023-05-19T06:20:39.711Z,22.77
2023-05-19T06:23:06.975Z,25.40
2023-05-19T06:25:36.903Z,27.02
2023-05-19T06:28:04.152Z,26.70
2023-05-19T06:30:31.697Z,22.17
2023-05-19T06:32:59.119Z,25.98
2023-05-19T06:35:26.234Z,19.38
2023-05-19T06:37:54.346Z,22.33
2023-05-19T06:40:22.539Z,22.30
2023-05-19T06:42:49.637Z,20.83
2023-05-19T06:45:17.002Z,22.60
2023-05-19T06:47:45.254Z,18.13
2023-05-19T06:50:13.457Z,21.40
2023-05-19T06:52:41.355Z,19.35
2023-05-19T06:55:08.822Z,21.17
2023-05-19T06:57:36.347Z,20.10
2023-05-19T07:00:04.496Z,20.27
2023-05-19T07:02:31.783Z,23.10
2023-05-19T07:04:59.435Z,23.70
2023-05-19T07:07:27.410Z,24.45
2023-05-19T07:09:54.972Z,23.80
2023-05-19T07:12:22.143Z,25.80
2023-05-19T07:14:49.460Z,23.25
2023-05-19T07:17:16.738Z,26.77
2023-05-19T07:19:44.278Z,24.20
2023-05-19T07:22:11.785Z,26.33
2023-05-19T07:24:38.851Z,30.02
2023-05-19T07:27:06.187Z,26.23
2023-05-19T07:29:33.391Z,27.23
2023-05-19T07:32:00.663Z,25.75
2023-05-19T07:34:27.937Z,22.88
2023-05-19T07:36:55.121Z,27.90
2023-05-19T07:39:25.268Z,23.48
2023-05-19T07:41:55.833Z,27.30
2023-05-19T07:46:50.099Z,27.13
2023-05-19T07:49:17.161Z,27.52
2023-05-19T07:51:45.161Z,26.50
2023-05-19T07:54:12.426Z,33.47
2023-05-19T07:56:39.752Z,29.38
2023-05-19T07:59:08.191Z,27.70
2023-05-19T08:01:35.475Z,28.15
2023-05-19T08:04:06.168Z,29.50
2023-05-19T08:06:33.408Z,29.83
2023-05-19T08:09:00.515Z,30.30
2023-05-19T08:11:27.729Z,27.80
2023-05-19T08:13:54.889Z,31.52
2023-05-19T08:16:22.149Z,33.20
2023-05-19T08:18:49.347Z,37.45
2023-05-19T08:21:16.879Z,29.77
2023-05-19T08:23:44.101Z,29.05
2023-05-19T08:26:11.306Z,32.22
2023-05-19T08:28:40.705Z,29.90
2023-05-19T08:31:07.827Z,32.70
2023-05-19T08:33:34.956Z,33.05
2023-05-19T08:36:02.131Z,31.95
2023-05-19T08:38:29.184Z,32.42
2023-05-19T08:40:58.241Z,35.17
2023-05-19T08:43:25.408Z,30.95
2023-05-19T08:45:54.208Z,29.35
2023-05-19T08:48:21.749Z,34.70
2023-05-19T08:51:25.066Z,32.20
2023-05-19T08:53:53.176Z,27.42
2023-05-19T08:56:26.949Z,33.42
2023-05-19T08:58:54.144Z,34.05
2023-05-19T09:01:21.394Z,29.27
2023-05-19T09:03:50.205Z,32.30
2023-05-19T09:06:17.901Z,31.63
2023-05-19T09:08:44.978Z,35.47
2023-05-19T09:11:12.467Z,32.42
2023-05-19T09:13:39.625Z,31.70
2023-05-19T09:16:07.117Z,33.38
2023-05-19T09:18:34.375Z,35.65
2023-05-19T09:21:03.203Z,31.08
2023-05-19T09:23:33.877Z,32.35
2023-05-19T09:28:33.463Z,35.80
2023-05-19T09:31:04.497Z,31.05
2023-05-19T09:33:33.765Z,32.40
2023-05-19T09:36:03.777Z,32.63
2023-05-19T09:38:30.994Z,36.40
2023-05-19T09:40:59.175Z,32.78
2023-05-19T09:43:33.816Z,28.30
2023-05-19T09:46:04.087Z,30.48
2023-05-19T09:48:31.289Z,30.40
2023-05-19T09:51:02.110Z,32.08
2023-05-19T09:53:32.759Z,32.78
2023-05-19T09:56:02.192Z,31.02
2023-05-19T09:58:35.595Z,34.30
2023-05-19T10:01:03.851Z,33.50
2023-05-19T10:03:32.760Z,30.85
2023-05-19T10:06:04.303Z,33.10
2023-05-19T10:08:32.039Z,35.03
2023-05-19T10:10:59.207Z,30.80
2023-05-19T10:13:26.806Z,33.67
2023-05-19T10:15:59.409Z,36.75
2023-05-19T10:18:30.376Z,35.53
2023-05-19T10:20:58.264Z,35.97
2023-05-19T10:23:25.984Z,36.90
2023-05-19T10:25:54.282Z,40.33
2023-05-19T10:28:23.732Z,35.40
2023-05-19T10:30:51.461Z,34.75
2023-05-19T10:33:21.276Z,37.10
2023-05-19T10:36:23.382Z,47.35
2023-05-19T10:39:01.259Z,57.42
2023-05-19T10:42:07.687Z,67.18
2023-05-19T10:45:04.786Z,69.82
2023-05-19T10:47:33.313Z,73.20
2023-05-19T10:50:04.822Z,79.13
2023-05-19T10:52:33.428Z,70.72
2023-05-19T10:55:02.156Z,68.45
2023-05-19T10:57:32.089Z,63.70
2023-05-19T11:00:10.797Z,59.65
2023-05-19T11:02:45.232Z,55.10
2023-05-19T11:05:18.455Z,55.95
2023-05-19T11:07:56.432Z,52.53
2023-05-19T11:10:24.116Z,44.47
2023-05-19T11:12:52.231Z,36.38
2023-05-19T11:15:19.464Z,40.33
2023-05-19T11:17:49.114Z,38.58
2023-05-19T11:20:26.590Z,34.17
2023-05-19T11:23:09.450Z,38.40
2023-05-19T11:25:50.456Z,25.70
2023-05-19T11:28:26.122Z,26.20
2023-05-19T11:30:57.590Z,25.52
2023-05-19T11:33:27.711Z,20.48
2023-05-19T11:35:58.673Z,18.77
2023-05-19T11:38:26.994Z,23.92
2023-05-19T11:40:54.333Z,26.08
2023-05-19T11:43:25.180Z,20.60
2023-05-19T11:45:54.311Z,18.02
2023-05-19T11:48:22.471Z,16.80
2023-05-19T11:50:50.048Z,18.25
2023-05-19T11:53:17.380Z,17.85
2023-05-19T11:55:48.074Z,14.90
2023-05-19T11:58:16.239Z,20.88
2023-05-19T12:00:46.254Z,17.50
2023-05-19T12:03:13.881Z,21.38
2023-05-19T12:05:48.235Z,18.55
2023-05-19T12:08:17.937Z,17.98
2023-05-19T12:10:45.630Z,16.45
2023-05-19T12:13:12.780Z,16.45
2023-05-19T12:15:39.902Z,16.52
2023-05-19T12:18:07.697Z,15.13
2023-05-19T12:20:37.942Z,17.63
2023-05-19T12:23:05.556Z,15.57
2023-05-19T12:25:33.077Z,15.63
2023-05-19T12:28:05.206Z,16.35
2023-05-19T12:30:33.622Z,18.35
2023-05-19T12:33:01.989Z,18.05
2023-05-19T12:35:30.856Z,19.52
2023-05-19T12:37:58.229Z,22.38
2023-05-19T12:40:26.562Z,20.52
2023-05-19T12:42:59.351Z,24.58
2023-05-19T12:45:28.671Z,19.35
2023-05-19T12:47:56.981Z,20.80
2023-05-19T12:50:31.408Z,17.25
2023-05-19T12:53:00.068Z,19.73
2023-05-19T12:55:27.470Z,24.58
2023-05-19T12:57:58.355Z,20.45
2023-05-19T13:00:28.425Z,22.80
2023-05-19T13:03:03.310Z,19.80
2023-05-19T13:05:31.991Z,21.90
2023-05-19T13:08:00.778Z,19.45
2023-05-19T13:10:28.426Z,23.33
2023-05-19T13:12:55.911Z,25.10
2023-05-19T13:15:24.760Z,20.55
2023-05-19T13:17:52.317Z,19.40
2023-05-19T13:20:20.362Z,18.58
2023-05-19T13:22:48.314Z,19.65
2023-05-19T13:25:15.630Z,17.90
2023-05-19T13:27:44.865Z,18.23
2023-05-19T13:30:12.547Z,20.45
2023-05-19T13:32:39.824Z,18.52
2023-05-19T13:35:07.527Z,18.40
2023-05-19T13:37:36.276Z,21.83
2023-05-19T13:40:03.835Z,23.48
2023-05-19T13:42:32.027Z,19.50
2023-05-19T13:44:59.219Z,22.70
2023-05-19T13:47:26.395Z,17.08
2023-05-19T13:49:53.586Z,19.27
2023-05-19T13:52:21.255Z,18.05
2023-05-19T13:54:48.785Z,18.75
2023-05-19T13:57:16.666Z,20.85
2023-05-19T13:59:57.696Z,22.00
2023-05-19T14:02:30.214Z,22.42
2023-05-19T14:04:57.723Z,19.10
2023-05-19T14:07:25.920Z,19.65
2023-05-19T14:09:55.544Z,19.63
2023-05-19T14:12:25.412Z,20.33
2023-05-19T14:14:58.781Z,19.55
2023-05-19T14:17:27.682Z,19.92
2023-05-19T14:19:55.018Z,21.23
2023-05-19T14:22:22.120Z,19.80
2023-05-19T14:24:49.265Z,27.45
2023-05-19T14:27:16.384Z,22.70
2023-05-19T14:29:43.710Z,21.25
2023-05-19T14:32:10.899Z,27.40
2023-05-19T14:34:37.955Z,21.27
2023-05-19T14:37:06.299Z,22.02
2023-05-19T14:39:33.365Z,23.58
2023-05-19T14:42:00.355Z,23.92
2023-05-19T14:44:33.062Z,20.08
2023-05-19T14:47:02.005Z,22.90
2023-05-19T14:49:29.325Z,24.55
2023-05-19T14:51:56.745Z,22.27
2023-05-19T14:54:23.854Z,25.02
2023-05-19T14:56:51.042Z,22.25
2023-05-19T14:59:18.153Z,25.85
2023-05-19T15:01:45.346Z,23.15
2023-05-19T15:04:12.647Z,23.30
2023-05-19T15:06:39.799Z,24.50
2023-05-19T15:09:07.191Z,26.38
2023-05-19T15:11:34.374Z,21.98
2023-05-19T15:14:01.674Z,21.23
2023-05-19T15:16:28.887Z,22.65
2023-05-19T15:18:56.369Z,22.70
2023-05-19T15:21:23.707Z,20.30
2023-05-19T15:23:50.852Z,24.20
2023-05-19T15:26:17.968Z,24.75
2023-05-19T15:28:45.129Z,23.80
2023-05-19T15:31:12.595Z,19.88
2023-05-19T15:33:39.826Z,21.13
2023-05-19T15:36:07.192Z,23.83
2023-05-19T15:38:37.692Z,22.70
2023-05-19T15:43:35.693Z,21.55
2023-05-19T15:46:05.125Z,20.38
2023-05-19T15:48:32.711Z,24.43
2023-05-19T15:51:00.149Z,23.80
2023-05-19T15:53:27.501Z,23.98
2023-05-19T15:55:54.758Z,24.38
2023-05-19T15:58:24.696Z,25.08
2023-05-19T16:00:52.165Z,25.80
2023-05-19T16:03:20.569Z,24.80
2023-05-19T16:05:50.393Z,26.35
2023-05-19T16:08:23.106Z,23.30
2023-05-19T16:10:58.338Z,26.83
2023-05-19T16:13:42.972Z,24.10
2023-05-19T16:16:10.483Z,32.38
2023-05-19T16:18:37.766Z,31.13
2023-05-19T16:21:05.292Z,23.25
2023-05-19T16:23:32.488Z,29.90
2023-05-19T16:25:59.622Z,26.30
2023-05-19T16:28:28.161Z,27.80
2023-05-19T16:31:01.247Z,24.10
2023-05-19T16:33:28.511Z,38.42
2023-05-19T16:35:56.285Z,47.03
2023-05-19T16:38:23.422Z,27.23
2023-05-19T16:40:50.585Z,27.23
2023-05-19T16:43:17.863Z,23.30
2023-05-19T16:45:45.080Z,26.38
2023-05-19T16:48:12.272Z,19.50
2023-05-19T16:50:40.079Z,18.33
2023-05-19T16:53:07.274Z,17.38
2023-05-19T16:55:34.337Z,19.13
2023-05-19T16:58:01.554Z,20.13
2023-05-19T17:00:29.985Z,19.42
2023-05-19T17:02:57.212Z,22.20
2023-05-19T17:05:24.321Z,23.35
2023-05-19T17:07:51.562Z,21.30
2023-05-19T17:10:18.804Z,20.88
2023-05-19T17:12:46.029Z,19.98
2023-05-19T17:15:13.108Z,19.77
2023-05-19T17:17:42.300Z,21.42
2023-05-19T17:20:09.973Z,31.63
2023-05-19T17:22:37.320Z,30.42
2023-05-19T17:25:04.788Z,24.98
2023-05-19T17:27:32.072Z,18.98
2023-05-19T17:29:59.227Z,28.00
2023-05-19T17:32:28.606Z,26.95
2023-05-19T17:34:56.129Z,23.63
2023-05-19T17:37:25.825Z,26.73
2023-05-19T17:39:53.092Z,31.40
2023-05-19T17:42:20.262Z,48.10
2023-05-19T17:44:47.490Z,31.67
2023-05-19T17:47:14.719Z,26.08
2023-05-19T17:49:41.926Z,23.05
2023-05-19T17:52:09.783Z,24.75
2023-05-19T17:54:37.274Z,20.80
2023-05-19T17:57:04.495Z,20.83
2023-05-19T17:59:31.936Z,20.85
2023-05-19T18:01:59.390Z,22.20
2023-05-19T18:04:26.810Z,25.15
2023-05-19T18:06:54.024Z,22.20
2023-05-19T18:09:21.572Z,21.75
2023-05-19T18:11:48.736Z,26.10
2023-05-19T18:14:15.993Z,24.63
2023-05-19T18:16:43.427Z,26.23
2023-05-19T18:19:11.052Z,26.13
2023-05-19T18:21:38.263Z,30.48
2023-05-19T18:24:06.252Z,25.90
2023-05-19T18:26:33.732Z,33.95
2023-05-19T18:29:04.924Z,29.05
2023-05-19T18:31:32.195Z,29.52
2023-05-19T18:33:59.298Z,27.13
2023-05-19T18:36:26.616Z,30.63
2023-05-19T18:38:55.257Z,35.92
2023-05-19T18:41:22.429Z,28.25
2023-05-19T18:43:49.542Z,30.85
2023-05-19T18:46:19.815Z,31.13
2023-05-19T18:48:47.464Z,30.92
2023-05-19T18:51:16.073Z,25.73
2023-05-19T18:53:43.222Z,32.58
2023-05-19T18:56:11.576Z,28.52
2023-05-19T18:58:38.733Z,29.02
2023-05-19T19:01:06.109Z,29.90
2023-05-19T19:03:33.239Z,29.00
2023-05-19T19:06:00.641Z,27.58
2023-05-19T19:08:27.775Z,31.58
2023-05-19T19:10:59.386Z,37.65
2023-05-19T19:13:27.049Z,39.95
2023-05-19T19:15:54.238Z,46.25
2023-05-19T19:18:21.573Z,48.53
2023-05-19T19:20:48.643Z,50.10
2023-05-19T19:23:16.269Z,47.03
2023-05-19T19:25:43.403Z,43.40
2023-05-19T19:28:10.874Z,47.22
2023-05-19T19:30:38.043Z,46.35
2023-05-19T19:33:06.700Z,45.10
2023-05-19T19:35:34.033Z,46.78
2023-05-19T19:38:01.660Z,57.42
2023-05-19T19:40:29.464Z,59.70
2023-05-19T19:42:56.826Z,68.88
2023-05-19T19:45:24.073Z,63.35
2023-05-19T19:47:51.960Z,63.33
2023-05-19T19:50:19.220Z,62.83
2023-05-19T19:52:46.375Z,58.33
2023-05-19T19:55:13.720Z,66.43
2023-05-19T19:57:40.890Z,69.65
2023-05-19T20:00:09.091Z,71.45
2023-05-19T20:02:45.589Z,64.60
2023-05-19T20:05:22.840Z,56.40
2023-05-19T20:07:49.983Z,59.50
2023-05-19T20:10:17.182Z,60.75
2023-05-19T20:12:44.610Z,59.40
2023-05-19T20:15:11.944Z,58.85
2023-05-19T20:17:39.007Z,62.08
2023-05-19T20:20:11.149Z,60.78
2023-05-19T20:22:38.959Z,56.08
2023-05-19T20:25:07.049Z,60.28
2023-05-19T20:27:34.582Z,59.45
2023-05-19T20:30:01.766Z,60.88
2023-05-19T20:32:28.930Z,55.53
2023-05-19T20:34:56.058Z,62.25
2023-05-19T20:37:23.200Z,62.72
2023-05-19T20:39:50.308Z,58.63
2023-05-19T20:42:17.423Z,69.35
2023-05-19T20:44:44.510Z,71.97
2023-05-19T20:47:11.791Z,59.22
2023-05-19T20:49:39.082Z,64.75
2023-05-19T20:52:06.510Z,69.20
2023-05-19T20:54:33.559Z,69.90
2023-05-19T20:57:01.422Z,70.13
2023-05-19T20:59:28.477Z,68.07
2023-05-19T21:01:55.654Z,65.90
2023-05-19T21:04:22.815Z,72.97
2023-05-19T21:06:50.224Z,63.38
2023-05-19T21:09:17.600Z,70.57
2023-05-19T21:11:45.221Z,66.47
2023-05-19T21:14:12.472Z,73.57
2023-05-19T21:16:39.950Z,69.18
2023-05-19T21:19:07.252Z,66.40
2023-05-19T21:21:34.518Z,70.95
2023-05-19T21:24:01.590Z,66.20
2023-05-19T21:26:28.709Z,74.88
2023-05-19T21:28:56.036Z,74.93
2023-05-19T21:31:23.315Z,71.57
2023-05-19T21:33:50.484Z,73.25
2023-05-19T21:36:18.460Z,69.07
2023-05-19T21:38:45.678Z,73.13
2023-05-19T21:41:13.079Z,73.57
2023-05-19T21:43:41.491Z,73.05
2023-05-19T21:46:08.751Z,79.93
2023-05-19T21:48:35.944Z,83.43
2023-05-19T21:51:04.670Z,82.03
2023-05-19T21:53:33.021Z,78.03
2023-05-19T21:56:00.460Z,94.47
2023-05-19T21:58:27.565Z,83.70
2023-05-19T22:00:56.467Z,82.30
2023-05-19T22:03:23.787Z,82.82
2023-05-19T22:05:51.993Z,76.43
2023-05-19T22:08:19.562Z,79.40
2023-05-19T22:10:52.253Z,74.88
2023-05-19T22:13:20.365Z,86.50
2023-05-19T22:15:47.611Z,80.97
2023-05-19T22:18:14.724Z,83.38
2023-05-19T22:20:42.048Z,83.25
2023-05-19T22:23:12.317Z,83.78
2023-05-19T22:25:39.685Z,78.10
2023-05-19T22:28:08.396Z,80.72
2023-05-19T22:30:41.130Z,85.15
2023-05-19T22:33:11.823Z,76.18
2023-05-19T22:35:39.241Z,77.80
2023-05-19T22:38:07.493Z,76.18
2023-05-19T22:40:36.865Z,78.63
2023-05-19T22:43:04.113Z,77.65
2023-05-19T22:45:31.972Z,76.40
2023-05-19T22:47:59.431Z,80.35
2023-05-19T22:50:26.656Z,76.35
2023-05-19T22:52:53.935Z,75.03
2023-05-19T22:55:21.203Z,77.45
2023-05-19T22:57:48.410Z,76.10
2023-05-19T23:00:21.426Z,82.88
2023-05-19T23:02:48.621Z,73.40
2023-05-19T23:05:15.961Z,76.15
2023-05-19T23:07:43.132Z,81.05
2023-05-19T23:10:10.770Z,78.88
2023-05-19T23:12:40.325Z,70.90
2023-05-19T23:15:08.704Z,71.65
2023-05-19T23:17:36.520Z,65.65
2023-05-19T23:20:04.234Z,71.97
2023-05-19T23:22:31.544Z,70.03
2023-05-19T23:24:58.874Z,64.50
2023-05-19T23:27:26.159Z,66.35
2023-05-19T23:29:53.696Z,69.18
2023-05-19T23:32:20.895Z,64.07
2023-05-19T23:34:48.850Z,63.42
2023-05-19T23:37:16.319Z,66.03
2023-05-19T23:39:43.666Z,69.97
2023-05-19T23:42:10.876Z,67.18
2023-05-19T23:44:38.009Z,61.75
2023-05-19T23:47:05.412Z,63.35
2023-05-19T23:49:32.485Z,62.05
2023-05-19T23:51:59.634Z,61.58
2023-05-19T23:54:26.933Z,72.55
2023-05-19T23:56:55.920Z,59.08
2023-05-19T23:59:23.265Z,58.45
